sensor_id;sensor_type;location;lat;lon;timestamp;pressure;altitude;pressure_sealevel;temperature
79148;BMP280;68562;51.600;6.524;2023-07-13T00:00:00;1013.3;;;21.7
79148;BMP280;68562;51.600;6.524;2023-07-13T00:05:00;1013.3;;;21.6
79148;BMP280;68562;51.600;6.524;2023-07-13T00:10:00;1013.4;;;21.5
79148;BMP280;68562;51.600;6.524;2023-07-13T00:15:02;1013.3;;;21.4
79148;BMP280;68562;51.600;6.524;2023-07-13T00:20:00;1013.3;;;21.3
79148;BMP280;68562;51.600;6.524;2023-07-13T00:25:00;1013.4;;;21.3
79148;BMP280;68562;51.600;6.524;2023-07-13T00:30:00;1013.4;;;21.2
79148;BMP280;68562;51.600;6.524;2023-07-13T00:35:00;1013.4;;;20.9
79148;BMP280;68562;51.600;6.524;2023-07-13T00:40:00;1013.4;;;20.8
79148;BMP280;68562;51.600;6.524;2023-07-13T00:45:01;1013.4;;;20.8
79148;BMP280;68562;51.600;6.524;2023-07-13T00:50:00;1013.5;;;20.7
79148;BMP280;68562;51.600;6.524;2023-07-13T00:55:01;1013.4;;;20.6
79148;BMP280;68562;51.600;6.524;2023-07-13T01:00:04;1013.5;;;20.7
79148;BMP280;68562;51.600;6.524;2023-07-13T01:05:00;1013.6;;;20.6
79148;BMP280;68562;51.600;6.524;2023-07-13T01:10:00;1013.6;;;20.6
79148;BMP280;68562;51.600;6.524;2023-07-13T01:15:01;1013.5;;;20.6
79148;BMP280;68562;51.600;6.524;2023-07-13T01:20:00;1013.5;;;20.7
79148;BMP280;68562;51.600;6.524;2023-07-13T01:25:00;1013.6;;;20.6
79148;BMP280;68562;51.600;6.524;2023-07-13T01:30:00;1013.6;;;20.6
79148;BMP280;68562;51.600;6.524;2023-07-13T01:35:00;1013.5;;;20.5
79148;BMP280;68562;51.600;6.524;2023-07-13T01:40:00;1013.5;;;20.5
79148;BMP280;68562;51.600;6.524;2023-07-13T01:45:00;1013.4;;;20.4
79148;BMP280;68562;51.600;6.524;2023-07-13T01:50:00;1013.5;;;20.4
79148;BMP280;68562;51.600;6.524;2023-07-13T01:55:00;1013.5;;;20.4
79148;BMP280;68562;51.600;6.524;2023-07-13T02:00:00;1013.5;;;20.4
79148;BMP280;68562;51.600;6.524;2023-07-13T02:05:00;1013.5;;;20.3
79148;BMP280;68562;51.600;6.524;2023-07-13T02:10:00;1013.5;;;20.3
79148;BMP280;68562;51.600;6.524;2023-07-13T02:15:00;1013.5;;;20.1
79148;BMP280;68562;51.600;6.524;2023-07-13T02:20:00;1013.5;;;20.0
79148;BMP280;68562;51.600;6.524;2023-07-13T02:25:00;1013.5;;;20.1
79148;BMP280;68562;51.600;6.524;2023-07-13T02:30:00;1013.6;;;20.2
79148;BMP280;68562;51.600;6.524;2023-07-13T02:35:00;1013.6;;;20.2
79148;BMP280;68562;51.600;6.524;2023-07-13T02:40:00;1013.6;;;20.2
79148;BMP280;68562;51.600;6.524;2023-07-13T02:45:00;1013.6;;;20.0
79148;BMP280;68562;51.600;6.524;2023-07-13T02:50:00;1013.7;;;20.1
79148;BMP280;68562;51.600;6.524;2023-07-13T02:55:00;1013.7;;;20.0
79148;BMP280;68562;51.600;6.524;2023-07-13T03:00:00;1013.7;;;19.9
79148;BMP280;68562;51.600;6.524;2023-07-13T03:05:00;1013.7;;;19.9
79148;BMP280;68562;51.600;6.524;2023-07-13T03:10:00;1013.8;;;19.8
79148;BMP280;68562;51.600;6.524;2023-07-13T03:15:00;1013.8;;;19.8
79148;BMP280;68562;51.600;6.524;2023-07-13T03:20:00;1013.9;;;19.9
79148;BMP280;68562;51.600;6.524;2023-07-13T03:25:00;1013.8;;;19.9
79148;BMP280;68562;51.600;6.524;2023-07-13T03:30:00;1013.9;;;19.8
79148;BMP280;68562;51.600;6.524;2023-07-13T03:35:00;1013.8;;;19.7
79148;BMP280;68562;51.600;6.524;2023-07-13T03:40:00;1013.9;;;19.7
79148;BMP280;68562;51.600;6.524;2023-07-13T03:45:00;1013.9;;;19.6
79148;BMP280;68562;51.600;6.524;2023-07-13T03:50:00;1013.9;;;19.5
79148;BMP280;68562;51.600;6.524;2023-07-13T03:55:00;1014.0;;;19.5
79148;BMP280;68562;51.600;6.524;2023-07-13T04:00:00;1014.0;;;19.5
79148;BMP280;68562;51.600;6.524;2023-07-13T04:05:00;1014.0;;;19.4
79148;BMP280;68562;51.600;6.524;2023-07-13T04:10:00;1014.1;;;19.4
79148;BMP280;68562;51.600;6.524;2023-07-13T04:15:00;1014.1;;;19.4
79148;BMP280;68562;51.600;6.524;2023-07-13T04:20:00;1014.1;;;19.2
79148;BMP280;68562;51.600;6.524;2023-07-13T04:25:00;1014.1;;;19.3
79148;BMP280;68562;51.600;6.524;2023-07-13T04:30:00;1014.2;;;19.2
79148;BMP280;68562;51.600;6.524;2023-07-13T04:35:00;1014.3;;;19.3
79148;BMP280;68562;51.600;6.524;2023-07-13T04:40:00;1014.2;;;19.4
79148;BMP280;68562;51.600;6.524;2023-07-13T04:45:00;1014.3;;;19.5
79148;BMP280;68562;51.600;6.524;2023-07-13T04:50:00;1014.3;;;19.4
79148;BMP280;68562;51.600;6.524;2023-07-13T04:55:00;1014.3;;;19.5
79148;BMP280;68562;51.600;6.524;2023-07-13T05:00:00;1014.3;;;19.5
79148;BMP280;68562;51.600;6.524;2023-07-13T05:05:00;1014.4;;;19.5
79148;BMP280;68562;51.600;6.524;2023-07-13T05:10:00;1014.4;;;19.6
79148;BMP280;68562;51.600;6.524;2023-07-13T05:15:01;1014.4;;;19.6
79148;BMP280;68562;51.600;6.524;2023-07-13T05:20:00;1014.4;;;19.5
79148;BMP280;68562;51.600;6.524;2023-07-13T05:25:00;1014.6;;;19.6
79148;BMP280;68562;51.600;6.524;2023-07-13T05:30:00;1014.6;;;19.8
79148;BMP280;68562;51.600;6.524;2023-07-13T05:35:00;1014.6;;;20.0
79148;BMP280;68562;51.600;6.524;2023-07-13T05:40:00;1014.7;;;19.9
79148;BMP280;68562;51.600;6.524;2023-07-13T05:45:01;1014.7;;;20.0
79148;BMP280;68562;51.600;6.524;2023-07-13T05:50:00;1014.8;;;20.1
79148;BMP280;68562;51.600;6.524;2023-07-13T05:55:00;1014.8;;;20.2
79148;BMP280;68562;51.600;6.524;2023-07-13T06:00:00;1014.8;;;20.4
79148;BMP280;68562;51.600;6.524;2023-07-13T06:05:00;1015.0;;;20.5
79148;BMP280;68562;51.600;6.524;2023-07-13T06:10:00;1015.1;;;20.6
79148;BMP280;68562;51.600;6.524;2023-07-13T06:15:00;1015.1;;;20.9
79148;BMP280;68562;51.600;6.524;2023-07-13T06:20:00;1015.2;;;20.9
79148;BMP280;68562;51.600;6.524;2023-07-13T06:25:00;1015.2;;;21.0
79148;BMP280;68562;51.600;6.524;2023-07-13T06:30:00;1015.3;;;20.9
79148;BMP280;68562;51.600;6.524;2023-07-13T06:35:00;1015.3;;;21.1
79148;BMP280;68562;51.600;6.524;2023-07-13T06:40:00;1015.4;;;21.1
79148;BMP280;68562;51.600;6.524;2023-07-13T06:45:00;1015.4;;;20.8
79148;BMP280;68562;51.600;6.524;2023-07-13T06:50:00;1015.4;;;21.0
79148;BMP280;68562;51.600;6.524;2023-07-13T06:55:00;1015.5;;;21.1
79148;BMP280;68562;51.600;6.524;2023-07-13T07:00:00;1015.5;;;21.2
79148;BMP280;68562;51.600;6.524;2023-07-13T07:05:00;1015.5;;;21.4
79148;BMP280;68562;51.600;6.524;2023-07-13T07:10:00;1015.5;;;21.6
79148;BMP280;68562;51.600;6.524;2023-07-13T07:15:00;1015.6;;;21.6
79148;BMP280;68562;51.600;6.524;2023-07-13T07:20:00;1015.5;;;21.6
79148;BMP280;68562;51.600;6.524;2023-07-13T07:25:00;1015.5;;;21.6
79148;BMP280;68562;51.600;6.524;2023-07-13T07:30:00;1015.6;;;21.9
79148;BMP280;68562;51.600;6.524;2023-07-13T07:35:00;1015.6;;;22.2
79148;BMP280;68562;51.600;6.524;2023-07-13T07:40:00;1015.6;;;22.3
79148;BMP280;68562;51.600;6.524;2023-07-13T07:45:00;1015.6;;;22.2
79148;BMP280;68562;51.600;6.524;2023-07-13T07:50:00;1015.6;;;22.2
79148;BMP280;68562;51.600;6.524;2023-07-13T07:55:00;1015.7;;;22.5
79148;BMP280;68562;51.600;6.524;2023-07-13T08:00:00;1015.6;;;22.6
79148;BMP280;68562;51.600;6.524;2023-07-13T08:05:00;1015.7;;;22.6
79148;BMP280;68562;51.600;6.524;2023-07-13T08:10:00;1015.6;;;22.4
79148;BMP280;68562;51.600;6.524;2023-07-13T08:15:00;1015.7;;;22.4
79148;BMP280;68562;51.600;6.524;2023-07-13T08:20:00;1015.7;;;22.6
79148;BMP280;68562;51.600;6.524;2023-07-13T08:25:00;1015.6;;;22.7
79148;BMP280;68562;51.600;6.524;2023-07-13T08:30:00;1015.6;;;22.8
79148;BMP280;68562;51.600;6.524;2023-07-13T08:35:00;1015.6;;;23.0
79148;BMP280;68562;51.600;6.524;2023-07-13T08:40:00;1015.6;;;23.1
79148;BMP280;68562;51.600;6.524;2023-07-13T08:45:06;1015.6;;;23.1
79148;BMP280;68562;51.600;6.524;2023-07-13T08:50:00;1015.6;;;23.3
79148;BMP280;68562;51.600;6.524;2023-07-13T08:55:06;1015.5;;;23.6
79148;BMP280;68562;51.600;6.524;2023-07-13T09:00:00;1015.5;;;23.6
79148;BMP280;68562;51.600;6.524;2023-07-13T09:05:03;1015.6;;;23.6
79148;BMP280;68562;51.600;6.524;2023-07-13T09:10:07;1015.6;;;23.6
79148;BMP280;68562;51.600;6.524;2023-07-13T09:15:02;1015.7;;;23.7
79148;BMP280;68562;51.600;6.524;2023-07-13T09:20:17;1015.7;;;23.9
79148;BMP280;68562;51.600;6.524;2023-07-13T09:25:04;1015.7;;;24.2
79148;BMP280;68562;51.600;6.524;2023-07-13T09:30:15;1015.6;;;24.4
79148;BMP280;68562;51.600;6.524;2023-07-13T09:35:00;1015.6;;;24.5
79148;BMP280;68562;51.600;6.524;2023-07-13T09:40:01;1015.6;;;25.0
79148;BMP280;68562;51.600;6.524;2023-07-13T09:45:01;1015.6;;;25.5
79148;BMP280;68562;51.600;6.524;2023-07-13T09:50:01;1015.6;;;25.6
79148;BMP280;68562;51.600;6.524;2023-07-13T09:55:00;1015.6;;;25.7
79148;BMP280;68562;51.600;6.524;2023-07-13T10:00:00;1015.6;;;25.8
79148;BMP280;68562;51.600;6.524;2023-07-13T10:05:01;1015.6;;;26.0
79148;BMP280;68562;51.600;6.524;2023-07-13T10:10:01;1015.6;;;26.4
79148;BMP280;68562;51.600;6.524;2023-07-13T10:15:00;1015.6;;;26.6
79148;BMP280;68562;51.600;6.524;2023-07-13T10:20:02;1015.6;;;27.3
79148;BMP280;68562;51.600;6.524;2023-07-13T10:25:00;1015.6;;;27.7
79148;BMP280;68562;51.600;6.524;2023-07-13T10:30:04;1015.6;;;27.9
79148;BMP280;68562;51.600;6.524;2023-07-13T10:35:00;1015.5;;;28.6
79148;BMP280;68562;51.600;6.524;2023-07-13T10:40:00;1015.6;;;29.2
79148;BMP280;68562;51.600;6.524;2023-07-13T10:45:00;1015.5;;;29.7
79148;BMP280;68562;51.600;6.524;2023-07-13T10:50:00;1015.5;;;30.0
79148;BMP280;68562;51.600;6.524;2023-07-13T10:55:02;1015.6;;;30.0
79148;BMP280;68562;51.600;6.524;2023-07-13T11:00:15;1015.5;;;30.0
79148;BMP280;68562;51.600;6.524;2023-07-13T11:05:17;1015.6;;;30.2
79148;BMP280;68562;51.600;6.524;2023-07-13T11:10:04;1015.6;;;29.8
79148;BMP280;68562;51.600;6.524;2023-07-13T11:15:06;1015.5;;;29.6
79148;BMP280;68562;51.600;6.524;2023-07-13T11:20:18;1015.5;;;29.4
79148;BMP280;68562;51.600;6.524;2023-07-13T11:25:02;1015.5;;;29.8
79148;BMP280;68562;51.600;6.524;2023-07-13T11:35:00;1015.5;;;29.5
79148;BMP280;68562;51.600;6.524;2023-07-13T11:40:00;1015.5;;;29.5
79148;BMP280;68562;51.600;6.524;2023-07-13T11:45:00;1015.5;;;29.3
79148;BMP280;68562;51.600;6.524;2023-07-13T11:50:00;1015.5;;;29.4
79148;BMP280;68562;51.600;6.524;2023-07-13T11:55:01;1015.3;;;29.6
79148;BMP280;68562;51.600;6.524;2023-07-13T12:00:02;1015.4;;;29.0
79148;BMP280;68562;51.600;6.524;2023-07-13T12:05:01;1015.4;;;29.1
79148;BMP280;68562;51.600;6.524;2023-07-13T12:10:01;1015.4;;;28.9
79148;BMP280;68562;51.600;6.524;2023-07-13T12:15:00;1015.3;;;29.2
79148;BMP280;68562;51.600;6.524;2023-07-13T12:20:03;1015.4;;;29.5
79148;BMP280;68562;51.600;6.524;2023-07-13T12:25:00;1015.8;;;29.1
79148;BMP280;68562;51.600;6.524;2023-07-13T12:30:02;1016.3;;;28.1
79148;BMP280;68562;51.600;6.524;2023-07-13T12:35:13;1016.4;;;27.2
79148;BMP280;68562;51.600;6.524;2023-07-13T12:40:01;1016.4;;;26.8
79148;BMP280;68562;51.600;6.524;2023-07-13T12:45:02;1016.4;;;26.8
79148;BMP280;68562;51.600;6.524;2023-07-13T12:50:03;1016.3;;;26.6
79148;BMP280;68562;51.600;6.524;2023-07-13T12:55:05;1016.2;;;26.6
79148;BMP280;68562;51.600;6.524;2023-07-13T13:00:02;1016.1;;;26.9
79148;BMP280;68562;51.600;6.524;2023-07-13T13:05:01;1016.1;;;27.4
79148;BMP280;68562;51.600;6.524;2023-07-13T13:10:00;1016.1;;;27.7
79148;BMP280;68562;51.600;6.524;2023-07-13T13:15:00;1016.1;;;28.0
79148;BMP280;68562;51.600;6.524;2023-07-13T13:20:00;1016.2;;;28.3
79148;BMP280;68562;51.600;6.524;2023-07-13T13:25:00;1016.2;;;28.5
79148;BMP280;68562;51.600;6.524;2023-07-13T13:30:00;1016.3;;;28.5
79148;BMP280;68562;51.600;6.524;2023-07-13T13:35:00;1016.5;;;28.4
79148;BMP280;68562;51.600;6.524;2023-07-13T13:40:00;1016.5;;;27.9
79148;BMP280;68562;51.600;6.524;2023-07-13T13:45:00;1016.5;;;27.5
79148;BMP280;68562;51.600;6.524;2023-07-13T13:50:00;1016.4;;;27.0
79148;BMP280;68562;51.600;6.524;2023-07-13T13:55:00;1016.3;;;26.7
79148;BMP280;68562;51.600;6.524;2023-07-13T14:00:00;1016.3;;;26.4
79148;BMP280;68562;51.600;6.524;2023-07-13T14:05:01;1016.2;;;26.3
79148;BMP280;68562;51.600;6.524;2023-07-13T14:10:00;1016.2;;;26.7
79148;BMP280;68562;51.600;6.524;2023-07-13T14:15:00;1016.2;;;27.4
79148;BMP280;68562;51.600;6.524;2023-07-13T14:20:00;1016.0;;;28.6
79148;BMP280;68562;51.600;6.524;2023-07-13T14:25:00;1016.0;;;29.5
79148;BMP280;68562;51.600;6.524;2023-07-13T14:30:00;1016.0;;;30.2
79148;BMP280;68562;51.600;6.524;2023-07-13T14:35:00;1016.0;;;30.8
79148;BMP280;68562;51.600;6.524;2023-07-13T14:40:00;1016.0;;;30.7
79148;BMP280;68562;51.600;6.524;2023-07-13T14:45:00;1016.1;;;30.1
79148;BMP280;68562;51.600;6.524;2023-07-13T14:50:00;1016.1;;;29.5
79148;BMP280;68562;51.600;6.524;2023-07-13T14:55:00;1016.1;;;28.8
79148;BMP280;68562;51.600;6.524;2023-07-13T15:00:00;1016.2;;;28.4
79148;BMP280;68562;51.600;6.524;2023-07-13T15:05:01;1016.2;;;27.9
79148;BMP280;68562;51.600;6.524;2023-07-13T15:10:00;1016.2;;;27.7
79148;BMP280;68562;51.600;6.524;2023-07-13T15:15:00;1016.3;;;27.6
79148;BMP280;68562;51.600;6.524;2023-07-13T15:20:00;1016.4;;;27.5
79148;BMP280;68562;51.600;6.524;2023-07-13T15:25:00;1016.4;;;27.0
79148;BMP280;68562;51.600;6.524;2023-07-13T15:30:00;1016.4;;;26.7
79148;BMP280;68562;51.600;6.524;2023-07-13T15:35:00;1016.4;;;26.5
79148;BMP280;68562;51.600;6.524;2023-07-13T15:40:00;1016.4;;;26.2
79148;BMP280;68562;51.600;6.524;2023-07-13T15:45:00;1016.4;;;25.9
79148;BMP280;68562;51.600;6.524;2023-07-13T15:50:00;1016.4;;;25.6
79148;BMP280;68562;51.600;6.524;2023-07-13T15:55:00;1016.4;;;25.5
79148;BMP280;68562;51.600;6.524;2023-07-13T16:00:00;1016.4;;;25.5
79148;BMP280;68562;51.600;6.524;2023-07-13T16:05:00;1016.3;;;25.4
79148;BMP280;68562;51.600;6.524;2023-07-13T16:10:00;1016.3;;;25.4
79148;BMP280;68562;51.600;6.524;2023-07-13T16:15:00;1016.3;;;25.5
79148;BMP280;68562;51.600;6.524;2023-07-13T16:20:00;1016.3;;;25.5
79148;BMP280;68562;51.600;6.524;2023-07-13T16:25:00;1016.3;;;25.5
79148;BMP280;68562;51.600;6.524;2023-07-13T16:30:00;1016.3;;;25.5
79148;BMP280;68562;51.600;6.524;2023-07-13T16:35:00;1016.2;;;25.4
79148;BMP280;68562;51.600;6.524;2023-07-13T16:40:00;1016.3;;;25.5
79148;BMP280;68562;51.600;6.524;2023-07-13T16:45:00;1016.2;;;25.5
79148;BMP280;68562;51.600;6.524;2023-07-13T16:50:00;1016.3;;;25.5
79148;BMP280;68562;51.600;6.524;2023-07-13T16:55:00;1016.2;;;25.6
79148;BMP280;68562;51.600;6.524;2023-07-13T17:00:00;1016.3;;;25.5
79148;BMP280;68562;51.600;6.524;2023-07-13T17:05:00;1016.4;;;25.6
79148;BMP280;68562;51.600;6.524;2023-07-13T17:10:00;1016.4;;;25.5
79148;BMP280;68562;51.600;6.524;2023-07-13T17:15:00;1016.3;;;25.6
79148;BMP280;68562;51.600;6.524;2023-07-13T17:20:00;1016.3;;;25.6
79148;BMP280;68562;51.600;6.524;2023-07-13T17:25:00;1016.3;;;25.8
79148;BMP280;68562;51.600;6.524;2023-07-13T17:30:00;1016.4;;;25.8
79148;BMP280;68562;51.600;6.524;2023-07-13T17:35:01;1016.4;;;25.8
79148;BMP280;68562;51.600;6.524;2023-07-13T17:40:00;1016.4;;;25.6
79148;BMP280;68562;51.600;6.524;2023-07-13T17:45:00;1016.5;;;25.5
79148;BMP280;68562;51.600;6.524;2023-07-13T17:50:00;1016.5;;;25.4
79148;BMP280;68562;51.600;6.524;2023-07-13T17:55:04;1016.5;;;25.5
79148;BMP280;68562;51.600;6.524;2023-07-13T18:00:00;1016.5;;;25.4
79148;BMP280;68562;51.600;6.524;2023-07-13T18:05:01;1016.5;;;25.4
79148;BMP280;68562;51.600;6.524;2023-07-13T18:10:00;1016.5;;;25.5
79148;BMP280;68562;51.600;6.524;2023-07-13T18:15:00;1016.4;;;25.5
79148;BMP280;68562;51.600;6.524;2023-07-13T18:20:00;1016.5;;;25.4
79148;BMP280;68562;51.600;6.524;2023-07-13T18:25:01;1016.5;;;25.5
79148;BMP280;68562;51.600;6.524;2023-07-13T18:30:00;1016.6;;;25.5
79148;BMP280;68562;51.600;6.524;2023-07-13T18:35:00;1016.6;;;25.3
79148;BMP280;68562;51.600;6.524;2023-07-13T18:40:00;1016.6;;;25.3
79148;BMP280;68562;51.600;6.524;2023-07-13T18:45:00;1016.6;;;25.1
79148;BMP280;68562;51.600;6.524;2023-07-13T18:50:00;1016.6;;;25.0
79148;BMP280;68562;51.600;6.524;2023-07-13T18:55:00;1016.6;;;25.1
79148;BMP280;68562;51.600;6.524;2023-07-13T19:00:00;1016.7;;;25.0
79148;BMP280;68562;51.600;6.524;2023-07-13T19:05:00;1016.7;;;25.0
79148;BMP280;68562;51.600;6.524;2023-07-13T19:10:00;1016.6;;;25.0
79148;BMP280;68562;51.600;6.524;2023-07-13T19:15:00;1016.7;;;25.0
79148;BMP280;68562;51.600;6.524;2023-07-13T19:20:00;1016.7;;;24.9
79148;BMP280;68562;51.600;6.524;2023-07-13T19:25:00;1016.7;;;24.9
79148;BMP280;68562;51.600;6.524;2023-07-13T19:30:00;1016.8;;;24.9
79148;BMP280;68562;51.600;6.524;2023-07-13T19:35:00;1016.8;;;24.9
79148;BMP280;68562;51.600;6.524;2023-07-13T19:40:00;1016.8;;;24.8
79148;BMP280;68562;51.600;6.524;2023-07-13T19:45:00;1016.8;;;24.9
79148;BMP280;68562;51.600;6.524;2023-07-13T19:50:00;1016.9;;;24.9
79148;BMP280;68562;51.600;6.524;2023-07-13T19:55:00;1016.9;;;24.8
79148;BMP280;68562;51.600;6.524;2023-07-13T20:00:00;1017.0;;;24.7
79148;BMP280;68562;51.600;6.524;2023-07-13T20:05:00;1017.1;;;24.7
79148;BMP280;68562;51.600;6.524;2023-07-13T20:10:00;1017.1;;;24.5
79148;BMP280;68562;51.600;6.524;2023-07-13T20:15:00;1017.1;;;24.5
79148;BMP280;68562;51.600;6.524;2023-07-13T20:20:00;1017.1;;;24.5
79148;BMP280;68562;51.600;6.524;2023-07-13T20:25:00;1017.1;;;24.6
79148;BMP280;68562;51.600;6.524;2023-07-13T20:30:00;1017.1;;;24.5
79148;BMP280;68562;51.600;6.524;2023-07-13T20:35:00;1017.1;;;24.5
79148;BMP280;68562;51.600;6.524;2023-07-13T20:40:00;1017.1;;;24.4
79148;BMP280;68562;51.600;6.524;2023-07-13T20:45:00;1017.1;;;24.4
79148;BMP280;68562;51.600;6.524;2023-07-13T20:50:00;1017.1;;;24.4
79148;BMP280;68562;51.600;6.524;2023-07-13T20:55:04;1017.1;;;24.4
79148;BMP280;68562;51.600;6.524;2023-07-13T21:00:00;1017.1;;;24.4
79148;BMP280;68562;51.600;6.524;2023-07-13T21:05:13;1017.1;;;24.3
79148;BMP280;68562;51.600;6.524;2023-07-13T21:10:00;1017.1;;;24.3
79148;BMP280;68562;51.600;6.524;2023-07-13T21:15:01;1017.1;;;24.2
79148;BMP280;68562;51.600;6.524;2023-07-13T21:20:00;1017.1;;;24.2
79148;BMP280;68562;51.600;6.524;2023-07-13T21:25:00;1017.1;;;24.1
79148;BMP280;68562;51.600;6.524;2023-07-13T21:30:00;1017.1;;;24.1
79148;BMP280;68562;51.600;6.524;2023-07-13T21:35:00;1017.2;;;24.0
79148;BMP280;68562;51.600;6.524;2023-07-13T21:40:00;1017.2;;;24.0
79148;BMP280;68562;51.600;6.524;2023-07-13T21:45:00;1017.2;;;23.9
79148;BMP280;68562;51.600;6.524;2023-07-13T21:50:00;1017.2;;;23.8
79148;BMP280;68562;51.600;6.524;2023-07-13T21:55:00;1017.3;;;23.8
79148;BMP280;68562;51.600;6.524;2023-07-13T22:00:00;1017.2;;;23.7
79148;BMP280;68562;51.600;6.524;2023-07-13T22:05:00;1017.2;;;23.7
79148;BMP280;68562;51.600;6.524;2023-07-13T22:10:00;1017.1;;;23.7
79148;BMP280;68562;51.600;6.524;2023-07-13T22:15:00;1017.1;;;23.7
79148;BMP280;68562;51.600;6.524;2023-07-13T22:20:00;1017.1;;;23.7
79148;BMP280;68562;51.600;6.524;2023-07-13T22:25:00;1017.1;;;23.6
79148;BMP280;68562;51.600;6.524;2023-07-13T22:30:00;1017.2;;;23.7
79148;BMP280;68562;51.600;6.524;2023-07-13T22:35:00;1017.1;;;23.6
79148;BMP280;68562;51.600;6.524;2023-07-13T22:40:00;1017.1;;;23.6
79148;BMP280;68562;51.600;6.524;2023-07-13T22:45:00;1017.0;;;23.5
79148;BMP280;68562;51.600;6.524;2023-07-13T22:50:00;1017.0;;;23.5
79148;BMP280;68562;51.600;6.524;2023-07-13T22:55:00;1017.1;;;23.3
79148;BMP280;68562;51.600;6.524;2023-07-13T23:00:00;1017.1;;;23.3
79148;BMP280;68562;51.600;6.524;2023-07-13T23:05:00;1017.0;;;23.2
79148;BMP280;68562;51.600;6.524;2023-07-13T23:10:00;1017.0;;;23.4
79148;BMP280;68562;51.600;6.524;2023-07-13T23:15:00;1017.0;;;23.4
79148;BMP280;68562;51.600;6.524;2023-07-13T23:20:00;1017.0;;;23.4
79148;BMP280;68562;51.600;6.524;2023-07-13T23:25:00;1016.9;;;23.4
79148;BMP280;68562;51.600;6.524;2023-07-13T23:30:00;1016.8;;;23.5
79148;BMP280;68562;51.600;6.524;2023-07-13T23:35:00;1016.8;;;23.5
79148;BMP280;68562;51.600;6.524;2023-07-13T23:40:00;1016.8;;;23.6
79148;BMP280;68562;51.600;6.524;2023-07-13T23:45:00;1016.9;;;23.5
79148;BMP280;68562;51.600;6.524;2023-07-13T23:50:00;1017.4;;;23.3
79148;BMP280;68562;51.600;6.524;2023-07-13T23:55:00;1017.2;;;23.0
